Time;durP1;ratioP1;P1;durP2;ratioP2;P2;SDS_P1;SDS_P2;PMS_P1;PMS_P2;Temp;Humidity;BMP_temperature;BMP_pressure;BME280_temperature;BME280_humidity;BME280_pressure;Samples;Min_cycle;Max_cycle;Signal;HPM_P1;HPM_P2
2022/05/06 00:01:45;;;;;;;6.82;2.90;;;;;;;;;;5059618;28;20035;-50
2022/05/06 00:04:11;;;;;;;7.43;2.58;;;;;;;;;;5064161;28;20118;-50
2022/05/06 00:06:38;;;;;;;4.72;2.85;;;;;;;;;;5058314;28;20025;-53
2022/05/06 00:09:04;;;;;;;4.38;2.08;;;;;;;;;;5061268;28;20525;-50
2022/05/06 00:11:34;;;;;;;3.92;2.38;;;;;;;;;;5064363;28;20060;-50
2022/05/06 00:14:00;;;;;;;3.65;2.50;;;;;;;;;;5050101;28;20032;-51
2022/05/06 00:16:26;;;;;;;4.13;2.50;;;;;;;;;;5059322;28;20102;-50
2022/05/06 00:18:53;;;;;;;4.57;2.47;;;;;;;;;;5064951;28;20044;-49
2022/05/06 00:21:19;;;;;;;4.82;2.60;;;;;;;;;;5063294;28;20036;-51
2022/05/06 00:23:45;;;;;;;5.30;2.88;;;;;;;;;;5063127;28;20037;-51
2022/05/06 00:26:11;;;;;;;4.68;2.90;;;;;;;;;;5045575;28;20484;-52
2022/05/06 00:28:37;;;;;;;3.70;2.50;;;;;;;;;;5062426;28;20029;-51
2022/05/06 00:31:04;;;;;;;4.85;2.88;;;;;;;;;;5057400;28;20032;-51
2022/05/06 00:33:31;;;;;;;4.95;2.88;;;;;;;;;;5059339;28;20040;-49
2022/05/06 00:35:58;;;;;;;3.65;2.50;;;;;;;;;;5063126;28;20498;-50
2022/05/06 00:38:24;;;;;;;6.25;3.38;;;;;;;;;;5057112;28;20063;-50
2022/05/06 00:40:50;;;;;;;7.60;2.45;;;;;;;;;;5041967;28;20071;-51
2022/05/06 00:43:16;;;;;;;4.65;2.78;;;;;;;;;;5057385;28;20056;-49
2022/05/06 00:45:45;;;;;;;3.17;2.70;;;;;;;;;;5049621;28;20048;-50
2022/05/06 00:48:12;;;;;;;3.63;2.47;;;;;;;;;;5060083;28;20025;-51
2022/05/06 00:50:38;;;;;;;5.55;3.30;;;;;;;;;;5058603;28;20032;-52
2022/05/06 00:53:06;;;;;;;6.07;3.40;;;;;;;;;;5056358;28;20434;-50
2022/05/06 00:55:33;;;;;;;6.15;2.90;;;;;;;;;;5064966;28;20033;-50
2022/05/06 00:57:59;;;;;;;7.18;2.88;;;;;;;;;;5063053;28;20024;-50
2022/05/06 01:00:25;;;;;;;4.60;2.80;;;;;;;;;;5062321;28;20056;-50
2022/05/06 01:02:51;;;;;;;4.82;2.50;;;;;;;;;;5062039;28;20029;-51
2022/05/06 01:05:17;;;;;;;8.60;3.75;;;;;;;;;;5062269;28;20400;-51
2022/05/06 01:07:44;;;;;;;6.07;3.17;;;;;;;;;;5060615;28;20028;-51
2022/05/06 01:10:11;;;;;;;5.10;2.90;;;;;;;;;;5067365;28;20028;-53
2022/05/06 01:12:37;;;;;;;5.80;3.33;;;;;;;;;;5066782;28;20540;-51
2022/05/06 01:15:16;;;;;;;3.33;2.38;;;;;;;;;;5063822;28;20024;-51
2022/05/06 01:17:42;;;;;;;9.25;3.60;;;;;;;;;;5060710;28;20036;-51
2022/05/06 01:20:08;;;;;;;4.45;2.72;;;;;;;;;;5061293;28;20036;-51
2022/05/06 01:22:35;;;;;;;7.38;3.22;;;;;;;;;;5055798;28;20036;-54
2022/05/06 01:25:01;;;;;;;6.75;3.28;;;;;;;;;;5066194;28;20479;-49
2022/05/06 01:27:29;;;;;;;5.80;2.75;;;;;;;;;;5065353;28;20450;-50
2022/05/06 01:29:55;;;;;;;7.40;3.40;;;;;;;;;;5051595;28;20100;-50
2022/05/06 01:32:22;;;;;;;5.03;3.15;;;;;;;;;;5065270;28;20140;-52
2022/05/06 01:34:49;;;;;;;5.85;2.85;;;;;;;;;;5050838;28;20598;-51
2022/05/06 01:37:16;;;;;;;7.65;3.30;;;;;;;;;;5056765;28;20065;-52
2022/05/06 01:39:43;;;;;;;4.82;3.08;;;;;;;;;;5065855;28;20044;-50
2022/05/06 01:42:12;;;;;;;5.10;3.28;;;;;;;;;;5061396;28;20039;-50
2022/05/06 01:44:40;;;;;;;6.32;3.60;;;;;;;;;;5056424;28;20029;-50
2022/05/06 01:47:10;;;;;;;5.65;3.08;;;;;;;;;;5054664;28;20019;-50
2022/05/06 01:49:37;;;;;;;6.13;3.42;;;;;;;;;;5054509;28;20794;-49
2022/05/06 01:52:03;;;;;;;4.65;2.92;;;;;;;;;;5062273;28;20054;-50
2022/05/06 01:54:30;;;;;;;4.30;2.72;;;;;;;;;;5051802;28;20570;-50
2022/05/06 01:56:56;;;;;;;5.10;3.35;;;;;;;;;;5061233;28;20025;-51
2022/05/06 01:59:22;;;;;;;7.00;3.20;;;;;;;;;;5058700;28;20498;-52
2022/05/06 02:01:48;;;;;;;5.30;3.50;;;;;;;;;;5053154;28;20041;-50
2022/05/06 02:06:58;;;;;;;8.18;3.58;;;;;;;;;;5060111;28;20404;-51
2022/05/06 02:09:24;;;;;;;6.32;3.22;;;;;;;;;;5063362;28;20029;-50
2022/05/06 02:11:50;;;;;;;7.65;3.28;;;;;;;;;;5062676;28;20067;-51
2022/05/06 02:14:16;;;;;;;5.88;3.53;;;;;;;;;;5056141;28;20393;-50
2022/05/06 02:16:42;;;;;;;4.68;3.15;;;;;;;;;;5066119;28;20476;-51
2022/05/06 02:19:08;;;;;;;6.38;3.63;;;;;;;;;;5058206;28;20155;-51
2022/05/06 02:21:34;;;;;;;6.03;3.20;;;;;;;;;;5066908;28;20426;-50
2022/05/06 02:24:00;;;;;;;4.35;3.10;;;;;;;;;;5058861;28;20380;-50
2022/05/06 02:26:26;;;;;;;4.35;3.25;;;;;;;;;;5055628;28;20033;-50
2022/05/06 02:28:52;;;;;;;7.10;3.40;;;;;;;;;;5059161;28;20492;-52
2022/05/06 02:34:02;;;;;;;5.63;3.47;;;;;;;;;;5055274;28;20033;-50
2022/05/06 02:36:28;;;;;;;7.13;4.07;;;;;;;;;;5063938;28;20041;-50
2022/05/06 02:38:54;;;;;;;6.80;3.72;;;;;;;;;;5054995;28;20392;-52
2022/05/06 02:41:20;;;;;;;5.53;3.00;;;;;;;;;;5062962;28;20040;-53
2022/05/06 02:43:46;;;;;;;6.97;3.53;;;;;;;;;;5061007;28;20033;-53
2022/05/06 02:46:12;;;;;;;5.70;3.60;;;;;;;;;;5054286;28;20029;-52
2022/05/06 02:48:38;;;;;;;5.47;3.15;;;;;;;;;;5062781;28;20036;-50
2022/05/06 02:51:04;;;;;;;5.53;3.58;;;;;;;;;;5068596;28;20025;-50
2022/05/06 02:53:30;;;;;;;5.38;3.25;;;;;;;;;;5058990;28;20028;-51
2022/05/06 02:55:56;;;;;;;7.68;3.92;;;;;;;;;;5063414;28;20031;-51
2022/05/06 02:58:22;;;;;;;5.88;3.65;;;;;;;;;;5053605;28;20094;-50
2022/05/06 03:00:48;;;;;;;6.18;3.50;;;;;;;;;;5056494;28;20028;-50
2022/05/06 03:03:14;;;;;;;6.65;3.35;;;;;;;;;;5054116;28;20032;-51
2022/05/06 03:05:40;;;;;;;5.13;3.50;;;;;;;;;;5070293;28;20025;-54
2022/05/06 03:08:06;;;;;;;7.82;3.63;;;;;;;;;;5063456;28;20036;-53
2022/05/06 03:10:32;;;;;;;4.78;3.47;;;;;;;;;;5059021;28;20024;-51
2022/05/06 03:12:58;;;;;;;7.20;3.33;;;;;;;;;;5069236;28;20421;-50
2022/05/06 03:15:24;;;;;;;4.93;3.38;;;;;;;;;;5062567;28;20021;-54
2022/05/06 03:17:51;;;;;;;7.07;3.42;;;;;;;;;;5067647;28;20036;-51
2022/05/06 03:20:17;;;;;;;5.65;3.35;;;;;;;;;;5064585;28;20024;-52
2022/05/06 03:22:46;;;;;;;8.40;3.60;;;;;;;;;;5070092;28;20162;-51
2022/05/06 03:25:12;;;;;;;6.00;3.45;;;;;;;;;;5060669;28;21918;-50
2022/05/06 03:30:23;;;;;;;5.75;3.85;;;;;;;;;;5057007;28;20530;-50
2022/05/06 03:32:49;;;;;;;6.18;3.70;;;;;;;;;;5067824;28;20029;-51
2022/05/06 03:35:15;;;;;;;7.30;3.80;;;;;;;;;;5060852;28;20039;-52
2022/05/06 03:37:42;;;;;;;5.50;3.72;;;;;;;;;;5057813;28;20028;-51
2022/05/06 03:40:08;;;;;;;5.78;3.80;;;;;;;;;;5069622;28;20017;-51
2022/05/06 03:42:34;;;;;;;5.53;3.67;;;;;;;;;;5059901;28;20455;-49
2022/05/06 03:45:02;;;;;;;10.00;4.30;;;;;;;;;;5062049;28;20024;-50
2022/05/06 03:47:28;;;;;;;10.18;3.92;;;;;;;;;;5062101;28;20028;-51
2022/05/06 03:52:39;;;;;;;7.50;4.35;;;;;;;;;;5065382;28;20032;-50
2022/05/06 03:55:05;;;;;;;8.70;4.13;;;;;;;;;;5065488;28;20388;-49
2022/05/06 03:57:31;;;;;;;7.05;3.80;;;;;;;;;;5060224;28;20174;-53
2022/05/06 03:59:57;;;;;;;5.28;4.00;;;;;;;;;;5055884;28;20523;-49
2022/05/06 04:02:23;;;;;;;5.90;3.83;;;;;;;;;;5062069;28;20051;-50
2022/05/06 04:04:49;;;;;;;9.90;4.25;;;;;;;;;;5059609;28;20025;-52
2022/05/06 04:07:15;;;;;;;7.30;3.88;;;;;;;;;;5057922;28;20060;-50
2022/05/06 04:09:41;;;;;;;6.18;3.60;;;;;;;;;;5066743;28;20025;-50
2022/05/06 04:12:09;;;;;;;5.60;4.15;;;;;;;;;;5069285;28;20027;-51
2022/05/06 04:14:35;;;;;;;6.55;4.00;;;;;;;;;;5064257;28;20032;-52
2022/05/06 04:17:03;;;;;;;6.22;4.05;;;;;;;;;;5057736;28;20032;-50
2022/05/06 04:19:29;;;;;;;6.90;4.07;;;;;;;;;;5057684;28;20484;-50
2022/05/06 04:24:40;;;;;;;5.43;3.90;;;;;;;;;;5060547;28;20120;-50
2022/05/06 04:27:06;;;;;;;8.20;4.05;;;;;;;;;;5063330;28;20025;-52
2022/05/06 04:29:32;;;;;;;7.00;4.00;;;;;;;;;;5062043;28;20040;-50
2022/05/06 04:31:58;;;;;;;5.10;3.33;;;;;;;;;;5059792;28;20368;-50
2022/05/06 04:34:24;;;;;;;7.35;4.05;;;;;;;;;;5070701;28;20108;-52
2022/05/06 04:36:50;;;;;;;6.57;4.03;;;;;;;;;;5065688;28;20032;-51
2022/05/06 04:39:16;;;;;;;5.63;3.92;;;;;;;;;;5060826;28;20111;-50
2022/05/06 04:41:43;;;;;;;6.18;4.00;;;;;;;;;;5078019;28;20036;-50
2022/05/06 04:44:09;;;;;;;5.80;3.25;;;;;;;;;;5067875;28;20070;-53
2022/05/06 04:46:34;;;;;;;6.22;3.97;;;;;;;;;;5055751;28;20044;-53
2022/05/06 04:49:00;;;;;;;6.25;4.03;;;;;;;;;;5064664;28;20028;-50
2022/05/06 04:51:26;;;;;;;7.03;4.10;;;;;;;;;;5055010;28;20491;-50
2022/05/06 04:53:55;;;;;;;10.65;4.28;;;;;;;;;;5062511;28;20783;-50
2022/05/06 04:56:21;;;;;;;4.97;3.75;;;;;;;;;;5056245;28;20039;-49
2022/05/06 04:58:47;;;;;;;5.88;3.88;;;;;;;;;;5063026;28;20061;-52
2022/05/06 05:01:13;;;;;;;9.00;4.53;;;;;;;;;;5057116;28;20040;-51
2022/05/06 05:03:39;;;;;;;4.90;3.70;;;;;;;;;;5066379;28;20072;-49
2022/05/06 05:06:07;;;;;;;6.60;3.88;;;;;;;;;;5064257;28;20020;-49
2022/05/06 05:08:33;;;;;;;5.55;3.75;;;;;;;;;;5071547;28;20036;-51
2022/05/06 05:11:02;;;;;;;7.93;4.28;;;;;;;;;;5066458;28;20103;-51
2022/05/06 05:13:29;;;;;;;8.18;4.53;;;;;;;;;;5063242;28;20500;-50
2022/05/06 05:15:55;;;;;;;6.50;3.92;;;;;;;;;;5061985;28;20024;-50
2022/05/06 05:18:22;;;;;;;9.65;4.50;;;;;;;;;;5062747;28;20578;-50
2022/05/06 05:20:48;;;;;;;5.82;3.72;;;;;;;;;;5061831;28;20077;-51
2022/05/06 05:23:14;;;;;;;6.90;4.07;;;;;;;;;;5067220;28;20029;-50
2022/05/06 05:25:39;;;;;;;6.68;3.90;;;;;;;;;;5065179;28;20395;-53
2022/05/06 05:28:06;;;;;;;6.28;4.25;;;;;;;;;;5061847;28;20392;-53
2022/05/06 05:30:34;;;;;;;5.90;3.55;;;;;;;;;;5068006;28;20032;-50
2022/05/06 05:33:00;;;;;;;6.60;3.88;;;;;;;;;;5067749;28;20024;-49
2022/05/06 05:35:27;;;;;;;7.65;3.58;;;;;;;;;;5066460;28;20480;-50
2022/05/06 05:37:52;;;;;;;8.45;4.20;;;;;;;;;;5053506;28;20052;-50
2022/05/06 05:40:18;;;;;;;6.63;3.63;;;;;;;;;;5061047;28;20522;-50
2022/05/06 05:42:44;;;;;;;6.22;4.30;;;;;;;;;;5061958;28;20111;-51
2022/05/06 05:50:40;;;;;;;6.57;3.63;;;;;;;;;;5051661;28;20036;-50
2022/05/06 05:53:06;;;;;;;7.63;3.80;;;;;;;;;;5056532;28;20032;-50
2022/05/06 05:55:32;;;;;;;9.07;3.75;;;;;;;;;;5067783;28;20036;-50
2022/05/06 05:57:57;;;;;;;9.48;3.70;;;;;;;;;;5056648;28;20112;-50
2022/05/06 06:00:24;;;;;;;6.95;3.60;;;;;;;;;;5068983;28;20051;-49
2022/05/06 06:02:50;;;;;;;6.85;3.70;;;;;;;;;;5056166;28;20032;-50
2022/05/06 06:05:16;;;;;;;5.72;2.83;;;;;;;;;;5061465;28;20025;-50
2022/05/06 06:07:42;;;;;;;5.63;3.13;;;;;;;;;;5059852;28;20036;-50
2022/05/06 06:10:08;;;;;;;6.63;3.08;;;;;;;;;;5061155;28;20017;-49
2022/05/06 06:12:35;;;;;;;7.95;3.80;;;;;;;;;;5058697;28;20108;-51
2022/05/06 06:15:01;;;;;;;5.65;3.53;;;;;;;;;;5066988;28;20025;-51
2022/05/06 06:17:28;;;;;;;7.20;3.55;;;;;;;;;;5059820;28;20061;-51
2022/05/06 06:19:54;;;;;;;7.18;3.47;;;;;;;;;;5060779;28;20045;-50
2022/05/06 06:22:20;;;;;;;6.90;2.72;;;;;;;;;;5056390;28;20037;-50
2022/05/06 06:24:46;;;;;;;9.35;3.50;;;;;;;;;;5053813;28;20028;-50
2022/05/06 06:27:12;;;;;;;7.30;3.35;;;;;;;;;;5059050;28;20248;-50
2022/05/06 06:29:38;;;;;;;6.93;2.95;;;;;;;;;;5059604;28;20238;-50
2022/05/06 06:32:04;;;;;;;6.65;3.13;;;;;;;;;;5056158;28;20059;-51
2022/05/06 06:34:30;;;;;;;6.90;2.75;;;;;;;;;;5065180;28;20032;-51
2022/05/06 06:36:56;;;;;;;6.03;2.60;;;;;;;;;;5050277;28;20024;-51
2022/05/06 06:39:22;;;;;;;4.45;2.45;;;;;;;;;;5063435;28;20036;-50
2022/05/06 06:41:48;;;;;;;8.07;2.60;;;;;;;;;;5055996;28;20038;-52
2022/05/06 06:44:14;;;;;;;3.72;2.65;;;;;;;;;;5065041;28;20032;-50
2022/05/06 06:46:40;;;;;;;4.43;2.38;;;;;;;;;;5065139;28;20112;-50
2022/05/06 06:49:06;;;;;;;4.43;2.10;;;;;;;;;;5069838;28;20494;-50
2022/05/06 06:51:32;;;;;;;11.45;2.47;;;;;;;;;;5055963;28;20373;-51
2022/05/06 06:53:58;;;;;;;5.07;2.10;;;;;;;;;;5058073;28;20505;-52
2022/05/06 06:56:24;;;;;;;3.08;1.90;;;;;;;;;;5069206;28;20039;-54
2022/05/06 06:58:50;;;;;;;4.63;2.40;;;;;;;;;;5062746;28;20399;-51
2022/05/06 07:01:16;;;;;;;5.65;2.28;;;;;;;;;;5067985;28;20479;-54
2022/05/06 07:03:42;;;;;;;3.88;2.25;;;;;;;;;;5056133;28;20115;-50
2022/05/06 07:11:52;;;;;;;5.45;2.33;;;;;;;;;;5057703;28;20063;-54
2022/05/06 07:14:18;;;;;;;4.13;2.58;;;;;;;;;;5067785;28;20040;-52
2022/05/06 07:16:44;;;;;;;5.45;2.67;;;;;;;;;;5069019;28;20032;-53
2022/05/06 07:19:10;;;;;;;7.85;2.80;;;;;;;;;;5065927;28;20052;-53
2022/05/06 07:21:37;;;;;;;6.95;3.00;;;;;;;;;;5071448;28;20034;-52
2022/05/06 07:24:03;;;;;;;5.07;2.80;;;;;;;;;;5061574;28;20018;-52
2022/05/06 07:26:30;;;;;;;8.20;2.80;;;;;;;;;;5060588;28;20108;-52
2022/05/06 07:28:56;;;;;;;6.07;2.97;;;;;;;;;;5055605;28;20052;-52
2022/05/06 07:31:22;;;;;;;8.40;3.03;;;;;;;;;;5070615;28;20060;-51
2022/05/06 07:33:49;;;;;;;7.75;3.58;;;;;;;;;;5069246;28;20033;-52
2022/05/06 07:36:15;;;;;;;5.57;3.05;;;;;;;;;;5070625;28;20035;-52
2022/05/06 07:38:41;;;;;;;8.18;3.60;;;;;;;;;;5065027;28;20487;-53
2022/05/06 07:41:07;;;;;;;10.10;4.70;;;;;;;;;;5070152;28;20450;-52
2022/05/06 07:43:34;;;;;;;11.57;5.82;;;;;;;;;;5069278;28;20112;-54
2022/05/06 07:46:00;;;;;;;12.00;5.40;;;;;;;;;;5068269;28;20108;-51
2022/05/06 07:48:26;;;;;;;10.98;5.18;;;;;;;;;;5068037;28;20470;-51
2022/05/06 07:50:52;;;;;;;9.07;4.63;;;;;;;;;;5068294;28;20154;-54
2022/05/06 07:53:19;;;;;;;9.65;5.25;;;;;;;;;;5072117;28;20029;-53
2022/05/06 07:55:45;;;;;;;9.25;4.35;;;;;;;;;;5068893;28;20032;-53
2022/05/06 07:58:12;;;;;;;10.05;4.20;;;;;;;;;;5069626;28;20036;-54
2022/05/06 08:00:38;;;;;;;7.10;3.95;;;;;;;;;;5058542;28;20388;-51
2022/05/06 08:05:57;;;;;;;11.73;4.32;;;;;;;;;;5034401;28;20037;-50
2022/05/06 08:08:23;;;;;;;7.35;4.10;;;;;;;;;;5066926;28;20033;-54
2022/05/06 08:10:49;;;;;;;10.98;5.05;;;;;;;;;;5063900;28;20518;-52
2022/05/06 08:13:17;;;;;;;8.13;3.80;;;;;;;;;;5060950;28;20040;-52
2022/05/06 08:15:43;;;;;;;9.75;4.88;;;;;;;;;;5062753;28;20013;-50
2022/05/06 08:18:09;;;;;;;9.30;4.10;;;;;;;;;;5059978;28;20041;-50
2022/05/06 08:20:36;;;;;;;9.88;3.90;;;;;;;;;;5067554;28;20024;-50
2022/05/06 08:23:02;;;;;;;10.75;4.38;;;;;;;;;;5071467;28;20032;-51
2022/05/06 08:25:28;;;;;;;6.82;4.00;;;;;;;;;;5071222;28;20039;-50
2022/05/06 08:27:54;;;;;;;10.77;4.45;;;;;;;;;;5072456;28;20086;-52
2022/05/06 08:30:19;;;;;;;7.10;3.60;;;;;;;;;;5064797;28;20039;-52
2022/05/06 08:32:45;;;;;;;8.40;3.90;;;;;;;;;;5063341;28;20032;-50
2022/05/06 08:35:12;;;;;;;7.20;3.70;;;;;;;;;;5065181;28;20028;-52
2022/05/06 08:37:41;;;;;;;7.40;3.72;;;;;;;;;;5070409;28;20060;-52
2022/05/06 08:40:08;;;;;;;8.65;4.65;;;;;;;;;;5070832;28;20499;-53
2022/05/06 08:42:34;;;;;;;9.73;3.90;;;;;;;;;;5065402;28;20480;-54
2022/05/06 08:53:16;;;;;;;9.80;3.70;;;;;;;;;;5067531;28;20063;-53
2022/05/06 08:55:42;;;;;;;8.57;4.45;;;;;;;;;;5065887;28;20032;-50
2022/05/06 08:58:08;;;;;;;10.73;3.63;;;;;;;;;;5070327;28;20039;-54
2022/05/06 09:00:34;;;;;;;7.50;4.28;;;;;;;;;;5067095;28;20085;-54
2022/05/06 09:03:00;;;;;;;8.82;4.05;;;;;;;;;;5059727;28;20033;-53
2022/05/06 09:05:26;;;;;;;8.75;4.70;;;;;;;;;;5064938;28;20107;-53
2022/05/06 09:07:59;;;;;;;9.40;4.22;;;;;;;;;;5066313;28;20390;-51
2022/05/06 09:10:26;;;;;;;5.53;3.17;;;;;;;;;;5071874;28;20020;-54
2022/05/06 09:12:56;;;;;;;9.82;4.13;;;;;;;;;;5063554;28;20157;-55
2022/05/06 09:18:07;;;;;;;12.68;3.65;;;;;;;;;;5070914;28;20075;-55
2022/05/06 09:20:34;;;;;;;6.72;3.45;;;;;;;;;;5065379;28;20017;-54
2022/05/06 09:23:18;;;;;;;6.63;3.40;;;;;;;;;;5064855;28;20094;-51
2022/05/06 09:25:51;;;;;;;6.68;3.25;;;;;;;;;;5059189;28;20021;-52
2022/05/06 09:28:30;;;;;;;6.78;3.22;;;;;;;;;;5070254;28;20046;-51
2022/05/06 09:31:10;;;;;;;6.57;3.67;;;;;;;;;;5070886;28;20028;-51
2022/05/06 09:33:40;;;;;;;9.73;4.50;;;;;;;;;;5059481;28;20036;-52
2022/05/06 09:36:24;;;;;;;11.10;3.10;;;;;;;;;;5070450;28;20502;-55
2022/05/06 09:39:02;;;;;;;6.30;2.90;;;;;;;;;;5065978;28;20035;-51
2022/05/06 09:41:28;;;;;;;5.85;3.22;;;;;;;;;;5068870;28;20044;-52
2022/05/06 09:44:01;;;;;;;5.57;2.78;;;;;;;;;;5071055;28;20021;-51
2022/05/06 09:46:27;;;;;;;6.93;3.13;;;;;;;;;;5062526;28;20032;-56
2022/05/06 09:48:55;;;;;;;4.95;2.58;;;;;;;;;;5071113;28;20039;-52
2022/05/06 09:51:25;;;;;;;6.15;2.88;;;;;;;;;;5070716;28;20028;-54
2022/05/06 09:53:51;;;;;;;6.78;2.20;;;;;;;;;;5067058;28;20048;-52
2022/05/06 09:56:18;;;;;;;7.45;3.08;;;;;;;;;;5070515;28;20123;-54
2022/05/06 09:58:44;;;;;;;4.40;2.75;;;;;;;;;;5052844;28;20029;-54
2022/05/06 10:01:10;;;;;;;6.97;2.72;;;;;;;;;;5070117;28;20055;-52
2022/05/06 10:03:35;;;;;;;5.82;2.70;;;;;;;;;;5055702;28;20068;-55
2022/05/06 10:06:04;;;;;;;5.75;2.33;;;;;;;;;;5070589;28;20021;-54
2022/05/06 10:08:31;;;;;;;5.80;3.00;;;;;;;;;;5070793;28;20037;-55
2022/05/06 10:10:59;;;;;;;3.70;2.10;;;;;;;;;;5065625;28;20029;-53
2022/05/06 10:13:27;;;;;;;4.88;2.78;;;;;;;;;;5068735;28;20588;-54
2022/05/06 10:15:54;;;;;;;2.58;1.85;;;;;;;;;;5054861;28;20059;-55
2022/05/06 10:18:33;;;;;;;5.18;2.40;;;;;;;;;;5067731;28;20036;-56
2022/05/06 10:21:00;;;;;;;6.72;2.60;;;;;;;;;;5062081;28;20029;-55
2022/05/06 10:23:42;;;;;;;5.95;2.10;;;;;;;;;;5075047;28;20021;-55
2022/05/06 10:26:08;;;;;;;3.73;1.90;;;;;;;;;;5072069;28;20124;-53
2022/05/06 10:34:07;;;;;;;3.35;2.25;;;;;;;;;;5074829;28;20399;-55
2022/05/06 10:36:52;;;;;;;4.25;2.00;;;;;;;;;;5061167;28;20017;-55
2022/05/06 10:39:22;;;;;;;4.70;2.10;;;;;;;;;;5074515;28;20028;-56
2022/05/06 10:42:00;;;;;;;5.90;2.15;;;;;;;;;;5046291;28;20069;-54
2022/05/06 10:44:34;;;;;;;4.35;1.60;;;;;;;;;;5059296;28;20031;-54
2022/05/06 10:47:00;;;;;;;4.55;1.48;;;;;;;;;;5073992;28;20500;-52
2022/05/06 10:49:34;;;;;;;2.47;1.80;;;;;;;;;;5074499;28;20021;-54
2022/05/06 10:52:16;;;;;;;3.20;1.63;;;;;;;;;;5067427;28;20046;-54
2022/05/06 10:54:48;;;;;;;4.25;1.70;;;;;;;;;;5070864;28;20123;-54
2022/05/06 10:57:15;;;;;;;2.08;1.30;;;;;;;;;;5073778;28;20034;-51
2022/05/06 10:59:48;;;;;;;4.65;1.70;;;;;;;;;;5074037;28;20051;-54
2022/05/06 11:02:14;;;;;;;4.97;1.67;;;;;;;;;;5073561;28;20033;-54
2022/05/06 11:04:43;;;;;;;3.15;1.38;;;;;;;;;;5074290;28;20151;-54
2022/05/06 11:07:12;;;;;;;2.30;1.10;;;;;;;;;;5070513;28;20021;-54
2022/05/06 11:09:38;;;;;;;2.15;1.20;;;;;;;;;;5069015;28;20025;-53
2022/05/06 11:12:05;;;;;;;1.95;0.80;;;;;;;;;;5061345;28;20032;-54
2022/05/06 11:14:30;;;;;;;1.70;0.90;;;;;;;;;;5070171;28;20020;-56
2022/05/06 11:17:15;;;;;;;1.95;0.93;;;;;;;;;;5073164;28;20148;-55
2022/05/06 11:19:41;;;;;;;1.63;0.65;;;;;;;;;;5073690;28;20052;-55
2022/05/06 11:22:08;;;;;;;3.80;1.38;;;;;;;;;;5073683;28;20112;-56
2022/05/06 11:24:34;;;;;;;3.85;1.17;;;;;;;;;;5073677;28;20099;-55
2022/05/06 11:27:15;;;;;;;2.17;1.23;;;;;;;;;;5063548;28;20044;-55
2022/05/06 11:29:55;;;;;;;4.22;1.40;;;;;;;;;;5061841;28;20411;-53
2022/05/06 11:32:21;;;;;;;2.95;1.20;;;;;;;;;;5064701;28;20029;-55
2022/05/06 11:34:59;;;;;;;2.80;0.80;;;;;;;;;;5073743;28;20029;-54
2022/05/06 11:37:27;;;;;;;3.38;1.08;;;;;;;;;;5067445;28;20424;-55
2022/05/06 11:40:18;;;;;;;1.75;0.80;;;;;;;;;;5073348;28;20118;-56
2022/05/06 11:42:40;;;;;;;4.97;0.60;;;;;;;;;;5069219;28;20134;-56
2022/05/06 11:47:51;;;;;;;1.40;0.70;;;;;;;;;;5067730;28;20443;-55
2022/05/06 11:50:17;;;;;;;1.77;0.82;;;;;;;;;;5073037;28;20029;-55
2022/05/06 11:52:45;;;;;;;2.05;0.63;;;;;;;;;;5069728;28;20483;-54
2022/05/06 11:55:11;;;;;;;1.50;0.90;;;;;;;;;;5063637;28;20043;-54
2022/05/06 11:57:39;;;;;;;1.75;0.70;;;;;;;;;;5067765;28;20487;-52
2022/05/06 12:00:05;;;;;;;1.05;0.77;;;;;;;;;;5068787;28;20055;-52
2022/05/06 12:02:31;;;;;;;2.47;0.70;;;;;;;;;;5072759;28;20028;-53
2022/05/06 12:04:57;;;;;;;2.28;0.80;;;;;;;;;;5072955;28;20020;-56
2022/05/06 12:07:40;;;;;;;1.92;0.90;;;;;;;;;;5063822;28;20111;-55
2022/05/06 12:10:07;;;;;;;1.48;0.70;;;;;;;;;;5072817;28;20069;-56
2022/05/06 12:12:33;;;;;;;2.38;0.70;;;;;;;;;;5068176;28;20039;-52
2022/05/06 12:15:11;;;;;;;1.02;0.73;;;;;;;;;;5062220;28;20021;-56
2022/05/06 12:17:37;;;;;;;1.27;0.63;;;;;;;;;;5066766;28;20499;-55
2022/05/06 12:20:04;;;;;;;1.45;0.75;;;;;;;;;;5056595;28;20053;-55
2022/05/06 12:22:30;;;;;;;2.05;0.70;;;;;;;;;;5072550;28;20025;-56
2022/05/06 12:24:58;;;;;;;2.05;0.88;;;;;;;;;;5068521;28;20099;-56
2022/05/06 12:27:24;;;;;;;1.35;0.70;;;;;;;;;;5065854;28;20021;-54
2022/05/06 12:29:50;;;;;;;0.65;0.47;;;;;;;;;;5058970;28;20024;-56
2022/05/06 12:32:16;;;;;;;3.67;0.52;;;;;;;;;;5054585;28;20036;-56
2022/05/06 12:34:42;;;;;;;2.85;0.70;;;;;;;;;;5072755;28;20114;-56
2022/05/06 12:37:12;;;;;;;1.65;0.60;;;;;;;;;;5072330;28;20035;-56
2022/05/06 12:39:44;;;;;;;2.42;0.60;;;;;;;;;;5059292;28;20480;-56
2022/05/06 12:42:17;;;;;;;1.77;0.70;;;;;;;;;;5064253;28;20029;-56
2022/05/06 12:44:44;;;;;;;1.02;0.40;;;;;;;;;;5071581;28;20035;-56
2022/05/06 12:47:13;;;;;;;2.53;0.50;;;;;;;;;;5064037;28;20031;-56
2022/05/06 12:49:42;;;;;;;1.60;0.55;;;;;;;;;;5061694;28;20427;-55
2022/05/06 12:52:09;;;;;;;9.77;1.35;;;;;;;;;;5067973;28;20036;-55
2022/05/06 12:54:36;;;;;;;2.65;0.52;;;;;;;;;;5056518;28;20032;-54
2022/05/06 12:57:03;;;;;;;1.13;0.70;;;;;;;;;;5066702;28;20024;-55
2022/05/06 12:59:29;;;;;;;1.63;0.80;;;;;;;;;;5065572;28;20443;-54
2022/05/06 13:01:55;;;;;;;1.92;0.73;;;;;;;;;;5070603;28;20047;-55
2022/05/06 13:04:22;;;;;;;1.30;0.68;;;;;;;;;;5069162;28;20035;-55
2022/05/06 13:06:48;;;;;;;3.63;0.80;;;;;;;;;;5067815;28;20071;-54
2022/05/06 13:09:14;;;;;;;2.95;0.80;;;;;;;;;;5052568;28;20436;-55
2022/05/06 13:11:41;;;;;;;1.60;0.70;;;;;;;;;;5066870;28;20110;-52
2022/05/06 13:14:07;;;;;;;2.92;0.68;;;;;;;;;;5063850;28;20032;-54
2022/05/06 13:16:35;;;;;;;3.22;0.80;;;;;;;;;;5071334;28;20024;-55
2022/05/06 13:19:01;;;;;;;2.10;0.95;;;;;;;;;;5069982;28;20056;-55
2022/05/06 13:21:27;;;;;;;3.47;1.00;;;;;;;;;;5061598;28;20067;-54
2022/05/06 13:23:53;;;;;;;2.75;0.70;;;;;;;;;;5071620;28;20388;-55
2022/05/06 13:26:19;;;;;;;1.38;0.80;;;;;;;;;;5069871;28;20024;-53
2022/05/06 13:28:45;;;;;;;3.05;0.70;;;;;;;;;;5070099;28;20033;-55
2022/05/06 13:31:13;;;;;;;1.52;0.80;;;;;;;;;;5066353;28;20024;-55
2022/05/06 13:33:39;;;;;;;1.23;0.80;;;;;;;;;;5067371;28;20029;-56
2022/05/06 13:36:05;;;;;;;1.95;0.88;;;;;;;;;;5064688;28;20987;-56
2022/05/06 13:38:31;;;;;;;3.75;0.70;;;;;;;;;;5060115;28;20032;-53
2022/05/06 13:40:57;;;;;;;3.40;0.70;;;;;;;;;;5065924;28;20021;-55
2022/05/06 13:43:23;;;;;;;2.08;0.63;;;;;;;;;;5065683;28;20024;-55
2022/05/06 13:45:49;;;;;;;0.95;0.52;;;;;;;;;;5065119;28;20036;-53
2022/05/06 13:48:15;;;;;;;3.05;0.60;;;;;;;;;;5070624;28;20024;-55
2022/05/06 13:50:41;;;;;;;1.27;0.60;;;;;;;;;;5064656;28;20028;-56
2022/05/06 13:53:09;;;;;;;1.23;0.40;;;;;;;;;;5066739;28;20099;-55
2022/05/06 14:01:04;;;;;;;0.82;0.55;;;;;;;;;;5052560;28;20032;-54
2022/05/06 14:03:30;;;;;;;0.68;0.25;;;;;;;;;;5061283;28;20044;-54
2022/05/06 14:05:56;;;;;;;1.55;0.63;;;;;;;;;;5055188;28;20021;-54
2022/05/06 14:08:22;;;;;;;2.63;0.70;;;;;;;;;;5070400;28;20029;-54
2022/05/06 14:10:48;;;;;;;2.17;0.85;;;;;;;;;;5066029;28;20369;-55
2022/05/06 14:13:14;;;;;;;1.17;0.50;;;;;;;;;;5061336;28;20028;-55
2022/05/06 14:15:40;;;;;;;1.33;0.60;;;;;;;;;;5066123;28;20476;-55
2022/05/06 14:18:06;;;;;;;0.70;0.40;;;;;;;;;;5050098;28;20032;-53
2022/05/06 14:20:32;;;;;;;5.25;1.27;;;;;;;;;;5070273;28;20036;-55
2022/05/06 14:22:58;;;;;;;3.17;0.80;;;;;;;;;;5052526;28;20036;-54
2022/05/06 14:25:24;;;;;;;1.58;0.70;;;;;;;;;;5069013;28;20066;-55
2022/05/06 14:27:50;;;;;;;1.15;0.45;;;;;;;;;;5062960;28;20032;-56
2022/05/06 14:30:16;;;;;;;2.65;0.70;;;;;;;;;;5062454;28;20047;-55
2022/05/06 14:32:42;;;;;;;1.85;0.63;;;;;;;;;;5063852;28;20039;-55
2022/05/06 14:35:19;;;;;;;1.35;0.50;;;;;;;;;;5070048;28;20051;-55
2022/05/06 14:37:45;;;;;;;1.23;0.65;;;;;;;;;;5063063;28;20037;-53
2022/05/06 14:40:11;;;;;;;1.38;0.60;;;;;;;;;;5060101;28;20029;-54
2022/05/06 14:42:37;;;;;;;1.10;0.65;;;;;;;;;;5060512;28;20119;-53
2022/05/06 14:45:04;;;;;;;3.47;1.02;;;;;;;;;;5061074;28;20025;-54
2022/05/06 14:47:29;;;;;;;0.73;0.55;;;;;;;;;;5060079;28;20043;-52
2022/05/06 14:49:55;;;;;;;2.22;0.85;;;;;;;;;;5057358;28;20480;-54
2022/05/06 14:52:23;;;;;;;2.10;0.65;;;;;;;;;;5063404;28;20693;-54
2022/05/06 14:54:52;;;;;;;3.35;0.90;;;;;;;;;;5054581;28;20029;-55
2022/05/06 14:57:18;;;;;;;3.92;0.52;;;;;;;;;;5070296;28;20038;-54
2022/05/06 14:59:44;;;;;;;0.95;0.30;;;;;;;;;;5054830;28;20029;-52
2022/05/06 15:02:10;;;;;;;1.33;0.60;;;;;;;;;;5058399;28;20028;-51
2022/05/06 15:04:37;;;;;;;1.67;0.80;;;;;;;;;;5058226;28;20045;-52
2022/05/06 15:07:03;;;;;;;1.55;0.60;;;;;;;;;;5058523;28;20395;-53
2022/05/06 15:09:29;;;;;;;1.17;0.45;;;;;;;;;;5061773;28;20025;-54
2022/05/06 15:11:54;;;;;;;1.80;0.60;;;;;;;;;;5065150;28;20025;-56
2022/05/06 15:14:23;;;;;;;2.03;0.50;;;;;;;;;;5067258;28;20488;-55
2022/05/06 15:16:49;;;;;;;1.80;0.50;;;;;;;;;;5064569;28;20025;-52
2022/05/06 15:19:23;;;;;;;1.88;0.57;;;;;;;;;;5055370;28;20052;-55
2022/05/06 15:21:50;;;;;;;0.98;0.50;;;;;;;;;;5063477;28;20037;-52
2022/05/06 15:24:16;;;;;;;1.73;0.43;;;;;;;;;;5073324;28;20025;-55
2022/05/06 15:26:42;;;;;;;1.23;0.40;;;;;;;;;;5072633;28;20492;-54
2022/05/06 15:29:08;;;;;;;3.42;0.55;;;;;;;;;;5071844;28;20094;-54
2022/05/06 15:31:34;;;;;;;1.00;0.50;;;;;;;;;;5061595;28;20407;-51
2022/05/06 15:34:00;;;;;;;1.45;0.43;;;;;;;;;;5057922;28;20028;-53
2022/05/06 15:36:26;;;;;;;5.15;0.50;;;;;;;;;;5064605;28;20040;-52